createdAt,value
2022-12-04T00:02:11.323Z,52.10
2022-12-04T00:05:02.319Z,49.72
2022-12-04T00:07:52.825Z,52.65
2022-12-04T00:10:43.752Z,48.60
2022-12-04T00:13:34.364Z,51.30
2022-12-04T00:16:26.971Z,46.97
2022-12-04T00:19:17.325Z,43.70
2022-12-04T00:22:07.651Z,45.35
2022-12-04T00:24:57.704Z,42.70
2022-12-04T00:27:47.733Z,47.85
2022-12-04T00:30:41.389Z,44.58
2022-12-04T00:33:31.879Z,49.55
2022-12-04T00:36:24.534Z,48.03
2022-12-04T00:39:14.991Z,50.75
2022-12-04T00:42:05.416Z,43.13
2022-12-04T00:44:55.755Z,43.97
2022-12-04T00:47:45.704Z,45.63
2022-12-04T00:50:36.847Z,42.30
2022-12-04T00:53:26.865Z,48.28
2022-12-04T00:56:20.232Z,46.08
2022-12-04T00:59:10.842Z,45.60
2022-12-04T01:02:01.043Z,43.28
2022-12-04T01:04:51.105Z,45.83
2022-12-04T01:07:41.586Z,41.47
2022-12-04T01:10:32.028Z,44.47
2022-12-04T01:13:23.233Z,46.47
2022-12-04T01:16:28.737Z,42.33
2022-12-04T01:19:19.066Z,50.08
2022-12-04T01:22:09.050Z,41.70
2022-12-04T01:24:59.341Z,41.55
2022-12-04T01:27:49.430Z,44.38
2022-12-04T01:30:39.804Z,42.55
2022-12-04T01:33:30.515Z,42.13
2022-12-04T01:36:24.516Z,46.42
2022-12-04T01:42:05.410Z,38.92
2022-12-04T01:45:26.677Z,40.33
2022-12-04T01:48:31.759Z,40.25
2022-12-04T01:51:30.583Z,44.03
2022-12-04T01:54:30.087Z,41.55
2022-12-04T01:57:22.796Z,39.85
2022-12-04T02:00:15.323Z,43.22
2022-12-04T02:03:05.703Z,37.97
2022-12-04T02:05:56.124Z,38.13
2022-12-04T02:08:46.518Z,41.78
2022-12-04T02:11:50.596Z,37.97
2022-12-04T02:14:56.807Z,42.35
2022-12-04T02:18:12.589Z,37.42
2022-12-04T02:21:14.170Z,42.58
2022-12-04T02:24:48.228Z,39.00
2022-12-04T02:27:40.252Z,41.67
2022-12-04T02:30:32.532Z,42.40
2022-12-04T02:33:26.966Z,42.10
2022-12-04T02:36:21.289Z,38.92
2022-12-04T02:39:23.055Z,39.67
2022-12-04T02:42:33.587Z,45.30
2022-12-04T02:45:29.578Z,39.55
2022-12-04T02:48:21.919Z,45.78
2022-12-04T02:51:16.819Z,42.90
2022-12-04T02:54:36.080Z,39.08
2022-12-04T02:57:31.473Z,39.92
2022-12-04T03:00:22.115Z,43.15
2022-12-04T03:03:23.195Z,45.05
2022-12-04T03:06:16.205Z,44.88
2022-12-04T03:09:21.756Z,39.90
2022-12-04T03:12:26.608Z,40.55
2022-12-04T03:15:19.700Z,44.83
2022-12-04T03:18:18.355Z,49.25
2022-12-04T03:21:17.652Z,44.13
2022-12-04T03:24:17.847Z,43.53
2022-12-04T03:27:32.657Z,41.33
2022-12-04T03:30:23.809Z,49.42
2022-12-04T03:33:21.611Z,45.83
2022-12-04T03:36:20.045Z,45.22
2022-12-04T03:39:22.958Z,45.40
2022-12-04T03:42:21.597Z,47.35
2022-12-04T03:45:19.601Z,44.08
2022-12-04T03:48:23.168Z,44.78
2022-12-04T03:51:19.449Z,45.70
2022-12-04T03:54:14.181Z,42.78
2022-12-04T03:57:14.660Z,41.90
2022-12-04T04:00:10.273Z,43.50
2022-12-04T04:03:11.132Z,41.35
2022-12-04T04:06:07.601Z,43.67
2022-12-04T04:09:04.821Z,42.10
2022-12-04T04:12:05.014Z,39.45
2022-12-04T04:15:17.520Z,40.38
2022-12-04T04:18:26.362Z,40.22
2022-12-04T04:21:39.703Z,39.78
2022-12-04T04:24:36.032Z,46.65
2022-12-04T04:27:26.147Z,43.45
2022-12-04T04:30:16.458Z,44.58
2022-12-04T04:33:16.505Z,43.80
2022-12-04T04:36:44.683Z,49.80
2022-12-04T04:39:48.342Z,48.40
2022-12-04T04:42:57.975Z,46.90
2022-12-04T04:45:54.288Z,40.90
2022-12-04T04:48:48.934Z,42.67
2022-12-04T04:51:39.899Z,45.53
2022-12-04T04:54:33.809Z,42.22
2022-12-04T04:57:35.641Z,43.60
2022-12-04T05:00:25.631Z,41.80
2022-12-04T05:03:15.818Z,44.50
2022-12-04T05:06:06.624Z,43.15
2022-12-04T05:08:56.513Z,43.88
2022-12-04T05:11:46.306Z,48.58
2022-12-04T05:14:36.718Z,43.88
2022-12-04T05:17:26.901Z,44.88
2022-12-04T05:20:16.969Z,48.22
2022-12-04T05:23:07.416Z,42.72
2022-12-04T05:26:02.094Z,49.95
2022-12-04T05:28:52.348Z,49.17
2022-12-04T05:31:42.685Z,48.50
2022-12-04T05:34:33.164Z,44.33
2022-12-04T05:37:24.445Z,48.65
2022-12-04T05:40:14.365Z,45.08
2022-12-04T05:43:04.575Z,46.05
2022-12-04T05:45:54.715Z,49.13
2022-12-04T05:48:44.859Z,47.53
2022-12-04T05:51:34.728Z,48.70
2022-12-04T05:54:25.891Z,44.35
2022-12-04T05:57:16.452Z,48.22
2022-12-04T06:00:06.986Z,49.85
2022-12-04T06:03:01.087Z,46.55
2022-12-04T06:05:51.457Z,46.10
2022-12-04T06:08:41.965Z,48.42
2022-12-04T06:11:34.884Z,48.40
2022-12-04T06:14:25.520Z,47.53
2022-12-04T06:17:15.739Z,46.95
2022-12-04T06:20:11.426Z,43.17
2022-12-04T06:23:02.306Z,42.55
2022-12-04T06:25:52.916Z,43.90
2022-12-04T06:28:43.413Z,38.50
2022-12-04T06:31:36.110Z,40.20
2022-12-04T06:34:26.929Z,49.22
2022-12-04T06:37:17.321Z,43.65
2022-12-04T06:40:08.074Z,47.72
2022-12-04T06:42:58.323Z,39.47
2022-12-04T06:45:48.895Z,43.25
2022-12-04T06:48:39.680Z,39.05
2022-12-04T06:51:35.811Z,45.25
2022-12-04T06:54:26.529Z,42.53
2022-12-04T06:57:16.936Z,42.80
2022-12-04T07:00:07.675Z,43.92
2022-12-04T07:02:57.959Z,43.67
2022-12-04T07:05:48.466Z,38.88
2022-12-04T07:08:38.233Z,43.58
2022-12-04T07:11:29.049Z,42.22
2022-12-04T07:14:18.969Z,42.72
2022-12-04T07:17:09.094Z,42.55
2022-12-04T07:19:59.155Z,44.08
2022-12-04T07:22:49.509Z,39.47
2022-12-04T07:25:40.682Z,36.20
2022-12-04T07:28:30.955Z,39.42
2022-12-04T07:31:22.824Z,34.53
2022-12-04T07:34:13.106Z,37.92
2022-12-04T07:37:03.362Z,44.30
2022-12-04T07:39:53.944Z,38.25
2022-12-04T07:42:44.331Z,36.65
2022-12-04T07:45:34.370Z,38.10
2022-12-04T07:48:28.777Z,42.53
2022-12-04T07:51:25.110Z,40.47
2022-12-04T07:54:15.487Z,38.45
2022-12-04T07:57:05.502Z,35.85
2022-12-04T07:59:55.977Z,35.20
2022-12-04T08:02:46.491Z,39.25
2022-12-04T08:05:36.737Z,37.55
2022-12-04T08:08:26.593Z,39.35
2022-12-04T08:11:20.116Z,36.83
2022-12-04T08:14:12.047Z,36.35
2022-12-04T08:17:02.450Z,36.00
2022-12-04T08:19:53.110Z,43.53
2022-12-04T08:22:43.465Z,43.28
2022-12-04T08:25:33.404Z,46.20
2022-12-04T08:28:23.326Z,37.17
2022-12-04T08:31:19.099Z,49.08
2022-12-04T08:34:09.354Z,39.95
2022-12-04T08:36:59.621Z,39.10
2022-12-04T08:39:49.660Z,36.38
2022-12-04T08:42:39.715Z,35.03
2022-12-04T08:45:29.694Z,46.03
2022-12-04T08:48:19.788Z,39.10
2022-12-04T08:51:21.052Z,41.65
2022-12-04T08:54:12.548Z,39.42
2022-12-04T08:57:03.259Z,35.50
2022-12-04T08:59:53.937Z,38.83
2022-12-04T09:02:44.590Z,41.97
2022-12-04T09:05:35.236Z,37.78
2022-12-04T09:08:25.416Z,39.80
2022-12-04T09:11:18.719Z,39.28
2022-12-04T09:14:09.292Z,34.45
2022-12-04T09:16:59.620Z,35.17
2022-12-04T09:19:50.365Z,39.47
2022-12-04T09:23:02.990Z,39.13
2022-12-04T09:25:51.240Z,34.85
2022-12-04T09:28:41.457Z,34.70
2022-12-04T09:31:32.811Z,33.60
2022-12-04T09:34:23.314Z,35.38
2022-12-04T09:37:13.856Z,36.75
2022-12-04T09:40:06.345Z,33.60
2022-12-04T09:43:18.086Z,32.10
2022-12-04T09:46:12.246Z,36.03
2022-12-04T09:49:11.171Z,36.10
2022-12-04T09:52:03.564Z,31.65
2022-12-04T09:54:55.372Z,31.50
2022-12-04T09:57:49.180Z,33.83
2022-12-04T10:00:47.588Z,29.58
2022-12-04T10:03:42.071Z,31.55
2022-12-04T10:06:57.563Z,33.67
2022-12-04T10:10:00.141Z,32.97
2022-12-04T10:13:03.352Z,33.40
2022-12-04T10:16:17.295Z,36.03
2022-12-04T10:19:15.129Z,30.27
2022-12-04T10:22:34.827Z,34.55
2022-12-04T10:25:26.518Z,41.03
2022-12-04T10:28:26.287Z,31.42
2022-12-04T10:31:17.010Z,33.60
2022-12-04T10:34:28.469Z,47.28
2022-12-04T10:37:19.226Z,35.17
2022-12-04T10:40:23.295Z,33.95
2022-12-04T10:43:23.648Z,34.25
2022-12-04T10:46:23.500Z,40.70
2022-12-04T10:49:22.786Z,42.75
2022-12-04T10:52:13.142Z,34.05
2022-12-04T10:55:03.753Z,35.53
2022-12-04T10:57:56.289Z,35.03
2022-12-04T11:01:03.006Z,30.15
2022-12-04T11:04:03.264Z,30.85
2022-12-04T11:07:03.176Z,27.50
2022-12-04T11:10:03.141Z,29.40
2022-12-04T11:12:55.800Z,31.15
2022-12-04T11:15:49.494Z,31.73
2022-12-04T11:18:50.631Z,28.08
2022-12-04T11:21:40.735Z,30.80
2022-12-04T11:24:35.538Z,27.92
2022-12-04T11:27:31.776Z,26.33
2022-12-04T11:30:28.463Z,28.30
2022-12-04T11:33:39.837Z,28.98
2022-12-04T11:36:31.888Z,36.00
2022-12-04T11:39:25.006Z,33.35
2022-12-04T11:42:19.408Z,30.50
2022-12-04T11:45:20.982Z,33.15
2022-12-04T11:48:17.093Z,32.10
2022-12-04T11:51:37.083Z,28.05
2022-12-04T11:54:45.125Z,31.70
2022-12-04T11:57:43.676Z,25.23
2022-12-04T12:00:39.664Z,31.88
2022-12-04T12:03:42.879Z,34.88
2022-12-04T12:06:39.355Z,31.20
2022-12-04T12:09:41.633Z,31.67
2022-12-04T12:12:53.451Z,31.73
2022-12-04T12:16:15.693Z,26.73
2022-12-04T12:19:13.420Z,30.65
2022-12-04T12:22:33.396Z,32.53
2022-12-04T12:26:03.174Z,48.72
2022-12-04T12:29:14.538Z,34.35
2022-12-04T12:32:17.693Z,34.30
2022-12-04T12:35:36.648Z,52.35
2022-12-04T12:38:33.518Z,79.60
2022-12-04T12:41:30.210Z,38.22
2022-12-04T12:44:26.639Z,36.88
2022-12-04T12:47:20.982Z,46.78
2022-12-04T12:50:32.445Z,41.58
2022-12-04T12:53:29.146Z,31.98
2022-12-04T12:56:25.834Z,34.42
2022-12-04T12:59:22.461Z,33.00
2022-12-04T13:02:45.547Z,34.53
2022-12-04T13:05:43.273Z,41.40
2022-12-04T13:08:45.018Z,41.15
2022-12-04T13:11:40.333Z,41.20
2022-12-04T13:14:30.620Z,40.38
2022-12-04T13:17:31.817Z,35.70
2022-12-04T13:20:31.120Z,36.42
2022-12-04T13:23:49.212Z,33.28
2022-12-04T13:26:49.899Z,37.72
2022-12-04T13:30:01.010Z,36.38
2022-12-04T13:33:16.418Z,37.95
2022-12-04T13:36:31.741Z,43.85
2022-12-04T13:40:04.472Z,44.20
2022-12-04T13:43:12.773Z,43.45
2022-12-04T13:46:07.637Z,41.40
2022-12-04T13:49:08.372Z,47.78
2022-12-04T13:52:00.095Z,41.20
2022-12-04T13:54:58.846Z,39.85
2022-12-04T13:57:58.824Z,43.78
2022-12-04T14:01:01.337Z,38.97
2022-12-04T14:03:57.580Z,44.20
2022-12-04T14:06:51.841Z,37.28
2022-12-04T14:12:41.128Z,46.33
2022-12-04T14:15:35.470Z,43.95
2022-12-04T14:18:30.395Z,49.63
2022-12-04T14:21:20.998Z,46.60
2022-12-04T14:24:30.565Z,55.38
2022-12-04T14:27:42.236Z,49.08
2022-12-04T14:30:38.292Z,49.15
2022-12-04T14:33:30.743Z,49.05
2022-12-04T14:36:45.449Z,55.70
2022-12-04T14:42:38.068Z,49.72
2022-12-04T14:45:43.717Z,49.53
2022-12-04T14:48:36.864Z,58.42
2022-12-04T14:51:54.216Z,56.25
2022-12-04T14:55:02.861Z,62.00
2022-12-04T14:58:23.837Z,52.25
2022-12-04T15:01:37.308Z,58.67
2022-12-04T15:04:34.725Z,68.60
2022-12-04T15:07:28.126Z,133.68
2022-12-04T15:10:51.123Z,72.10
2022-12-04T15:13:41.455Z,60.70
2022-12-04T15:16:31.603Z,64.78
2022-12-04T15:19:22.297Z,63.53
2022-12-04T15:22:27.192Z,66.10
2022-12-04T15:25:24.901Z,64.15
2022-12-04T15:28:26.307Z,60.40
2022-12-04T15:31:23.770Z,73.18
2022-12-04T15:34:17.288Z,69.80
2022-12-04T15:37:18.255Z,51.55
2022-12-04T15:40:11.808Z,53.60
2022-12-04T15:43:17.002Z,61.85
2022-12-04T15:46:31.389Z,63.30
2022-12-04T15:52:19.079Z,61.47
2022-12-04T15:55:12.794Z,63.78
2022-12-04T15:58:07.733Z,71.45
2022-12-04T16:01:01.475Z,78.10
2022-12-04T16:06:47.527Z,61.92
2022-12-04T16:09:37.919Z,62.15
2022-12-04T16:12:31.027Z,70.28
2022-12-04T16:15:23.240Z,68.25
2022-12-04T16:18:14.310Z,71.05
2022-12-04T16:21:16.135Z,72.85
2022-12-04T16:24:07.822Z,76.75
2022-12-04T16:27:00.263Z,83.03
2022-12-04T16:29:51.771Z,72.65
2022-12-04T16:32:42.044Z,69.22
2022-12-04T16:35:33.267Z,63.80
2022-12-04T16:38:23.240Z,74.50
2022-12-04T16:41:18.079Z,66.25
2022-12-04T16:44:15.146Z,69.43
2022-12-04T16:47:06.506Z,73.43
2022-12-04T16:49:56.925Z,70.53
2022-12-04T16:52:47.452Z,75.60
2022-12-04T16:55:39.466Z,77.03
2022-12-04T16:58:29.820Z,79.03
2022-12-04T17:01:45.373Z,73.00
2022-12-04T17:04:35.888Z,64.10
2022-12-04T17:07:26.071Z,69.13
2022-12-04T17:10:20.325Z,76.43
2022-12-04T17:13:13.769Z,84.03
2022-12-04T17:16:03.959Z,68.60
2022-12-04T17:18:54.089Z,75.28
2022-12-04T17:21:45.405Z,81.93
2022-12-04T17:24:37.831Z,76.68
2022-12-04T17:27:29.634Z,82.45
2022-12-04T17:30:20.038Z,78.53
2022-12-04T17:33:10.130Z,89.53
2022-12-04T17:36:00.604Z,78.88
2022-12-04T17:38:58.779Z,85.82
2022-12-04T17:41:48.944Z,86.40
2022-12-04T17:44:39.230Z,83.18
2022-12-04T17:47:29.295Z,79.03
2022-12-04T17:50:19.418Z,86.65
2022-12-04T17:53:09.750Z,84.60
2022-12-04T17:56:09.698Z,82.50
2022-12-04T17:58:59.867Z,79.82
2022-12-04T18:01:50.409Z,81.18
2022-12-04T18:04:40.850Z,86.30
2022-12-04T18:07:31.561Z,82.43
2022-12-04T18:10:21.975Z,81.45
2022-12-04T18:13:12.053Z,87.50
2022-12-04T18:16:04.564Z,76.88
2022-12-04T18:18:56.120Z,73.13
2022-12-04T18:21:46.583Z,82.47
2022-12-04T18:24:37.003Z,82.60
2022-12-04T18:27:27.315Z,86.00
2022-12-04T18:30:17.513Z,83.85
2022-12-04T18:33:07.593Z,83.32
2022-12-04T18:35:58.229Z,78.03
2022-12-04T18:39:04.119Z,75.15
2022-12-04T18:41:56.490Z,75.70
2022-12-04T18:44:46.974Z,75.57
2022-12-04T18:47:36.845Z,69.45
2022-12-04T18:50:29.252Z,75.50
2022-12-04T18:53:19.413Z,118.85
2022-12-04T18:56:10.188Z,68.97
2022-12-04T18:59:12.621Z,69.32
2022-12-04T19:02:02.514Z,66.53
2022-12-04T19:04:52.863Z,75.13
2022-12-04T19:07:43.539Z,66.65
2022-12-04T19:10:33.727Z,63.13
2022-12-04T19:13:23.594Z,61.70
2022-12-04T19:16:15.418Z,65.97
2022-12-04T19:19:05.596Z,55.78
2022-12-04T19:21:56.013Z,51.80
2022-12-04T19:24:47.004Z,52.03
2022-12-04T19:27:37.055Z,54.58
2022-12-04T19:30:26.985Z,57.15
2022-12-04T19:33:17.270Z,48.97
2022-12-04T19:36:07.747Z,57.50
2022-12-04T19:38:58.768Z,59.40
2022-12-04T19:41:49.026Z,58.00
2022-12-04T19:44:48.451Z,60.15
2022-12-04T19:47:39.468Z,56.97
2022-12-04T19:50:29.642Z,58.25
2022-12-04T19:53:19.695Z,56.15
2022-12-04T19:56:16.444Z,60.95
2022-12-04T19:59:08.214Z,55.38
2022-12-04T20:01:58.497Z,59.80
2022-12-04T20:04:48.591Z,56.60
2022-12-04T20:07:39.236Z,51.30
2022-12-04T20:10:29.639Z,48.97
2022-12-04T20:13:19.981Z,50.35
2022-12-04T20:16:13.070Z,53.72
2022-12-04T20:19:06.122Z,49.50
2022-12-04T20:21:59.475Z,48.97
2022-12-04T20:24:49.776Z,61.05
2022-12-04T20:27:40.215Z,56.22
2022-12-04T20:30:30.647Z,47.72
2022-12-04T20:33:21.011Z,48.80
2022-12-04T20:36:12.900Z,47.88
2022-12-04T20:39:03.780Z,48.53
2022-12-04T20:41:53.968Z,50.22
2022-12-04T20:44:44.081Z,55.47
2022-12-04T20:47:36.199Z,59.17
2022-12-04T20:50:26.460Z,51.80
2022-12-04T20:53:17.011Z,53.40
2022-12-04T20:56:08.017Z,56.97
2022-12-04T20:59:00.021Z,54.70
2022-12-04T21:01:51.433Z,54.58
2022-12-04T21:04:41.890Z,48.33
2022-12-04T21:07:32.214Z,56.47
2022-12-04T21:10:22.287Z,50.22
2022-12-04T21:13:30.851Z,55.55
2022-12-04T21:16:21.656Z,63.97
2022-12-04T21:19:14.853Z,58.58
2022-12-04T21:22:05.233Z,54.27
2022-12-04T21:24:55.716Z,58.78
2022-12-04T21:27:45.689Z,57.67
2022-12-04T21:30:35.844Z,54.78
2022-12-04T21:33:26.097Z,55.95
2022-12-04T21:36:16.114Z,68.57
2022-12-04T21:39:06.878Z,61.22
2022-12-04T21:42:15.645Z,63.60
2022-12-04T21:45:07.529Z,55.15
2022-12-04T21:47:58.237Z,56.53
2022-12-04T21:50:48.512Z,57.20
2022-12-04T21:53:42.440Z,61.97
2022-12-04T21:56:33.130Z,60.13
2022-12-04T21:59:24.520Z,63.35
2022-12-04T22:02:15.476Z,63.88
2022-12-04T22:05:05.856Z,59.38
2022-12-04T22:07:56.152Z,63.90
2022-12-04T22:10:47.527Z,64.18
2022-12-04T22:13:38.585Z,72.05
2022-12-04T22:16:30.894Z,58.22
2022-12-04T22:19:21.745Z,63.67
2022-12-04T22:22:11.685Z,65.93
2022-12-04T22:25:01.988Z,56.30
2022-12-04T22:27:55.903Z,65.53
2022-12-04T22:30:46.660Z,60.63
2022-12-04T22:33:38.296Z,59.40
2022-12-04T22:36:31.242Z,63.92
2022-12-04T22:39:21.477Z,62.58
2022-12-04T22:42:11.886Z,60.25
2022-12-04T22:45:02.047Z,58.10
2022-12-04T22:47:52.491Z,66.78
2022-12-04T22:50:42.471Z,56.28
2022-12-04T22:53:45.503Z,60.33
2022-12-04T22:56:35.862Z,53.88
2022-12-04T22:59:26.178Z,56.90
2022-12-04T23:02:16.491Z,62.42
2022-12-04T23:05:06.935Z,58.78
2022-12-04T23:07:57.040Z,66.95
2022-12-04T23:10:47.525Z,59.40
2022-12-04T23:13:38.267Z,59.28
2022-12-04T23:16:31.339Z,55.58
2022-12-04T23:19:22.724Z,53.83
2022-12-04T23:22:13.187Z,51.17
2022-12-04T23:25:03.858Z,54.75
2022-12-04T23:27:54.474Z,50.35
2022-12-04T23:30:46.656Z,49.63
2022-12-04T23:33:37.562Z,54.75
2022-12-04T23:36:28.303Z,51.22
2022-12-04T23:39:18.644Z,53.45
2022-12-04T23:42:08.815Z,55.13
2022-12-04T23:44:59.168Z,56.70
2022-12-04T23:47:49.153Z,58.05
2022-12-04T23:50:39.622Z,59.90
2022-12-04T23:53:30.107Z,58.13
2022-12-04T23:56:26.018Z,53.78
2022-12-04T23:59:16.850Z,52.53
